Time;durP1;ratioP1;P1;durP2;ratioP2;P2;SDS_P1;SDS_P2;PMS_P1;PMS_P2;Temp;Humidity;BMP_temperature;BMP_pressure;BME280_temperature;BME280_humidity;BME280_pressure;Samples;Min_cycle;Max_cycle;Signal;HPM_P1;HPM_P2
2022/10/22 00:00:17;;;;;;;3.75;1.38;;;16.50;90.30;;;;;;5014019;28;20049;-77
2022/10/22 00:02:43;;;;;;;2.92;1.23;;;16.50;90.30;;;;;;5031762;28;20036;-78
2022/10/22 00:05:09;;;;;;;2.17;1.30;;;16.50;90.30;;;;;;5010721;28;20030;-77
2022/10/22 00:07:35;;;;;;;2.03;1.15;;;16.50;90.30;;;;;;5029576;28;20037;-77
2022/10/22 00:10:01;;;;;;;2.63;1.20;;;16.50;90.40;;;;;;5021238;28;20112;-77
2022/10/22 00:12:27;;;;;;;2.55;1.50;;;16.50;90.30;;;;;;5011507;28;20063;-76
2022/10/22 00:14:53;;;;;;;3.08;1.42;;;16.50;90.40;;;;;;5012582;28;20543;-77
2022/10/22 00:17:19;;;;;;;2.50;1.38;;;16.50;90.40;;;;;;5013723;28;20052;-77
2022/10/22 00:19:44;;;;;;;2.55;1.30;;;16.50;90.40;;;;;;5012449;28;20121;-76
2022/10/22 00:22:10;;;;;;;3.03;1.30;;;16.50;90.30;;;;;;5021659;28;20021;-77
2022/10/22 00:24:37;;;;;;;1.73;1.15;;;16.50;90.30;;;;;;5031932;28;20491;-78
2022/10/22 00:27:03;;;;;;;3.83;1.73;;;16.50;90.30;;;;;;5033848;28;20029;-77
2022/10/22 00:29:29;;;;;;;2.72;1.23;;;16.50;90.20;;;;;;5030633;28;20100;-77
2022/10/22 00:31:55;;;;;;;3.10;1.33;;;16.50;90.20;;;;;;5012307;28;20614;-77
2022/10/22 00:34:21;;;;;;;1.75;1.10;;;16.50;90.10;;;;;;5011473;28;20097;-77
2022/10/22 00:36:48;;;;;;;3.17;1.40;;;16.50;90.10;;;;;;5028197;28;20030;-77
2022/10/22 00:39:15;;;;;;;2.55;1.45;;;16.60;90.10;;;;;;5011776;28;20487;-77
2022/10/22 00:41:46;;;;;;;2.58;1.27;;;16.50;90.10;;;;;;5029168;28;20068;-77
2022/10/22 00:44:49;;;;;;;2.10;1.30;;;16.50;90.20;;;;;;5011142;28;20032;-77
2022/10/22 00:47:16;;;;;;;2.13;1.23;;;16.50;90.20;;;;;;5029792;28;20033;-77
2022/10/22 00:49:43;;;;;;;2.17;1.15;;;16.60;90.30;;;;;;5030580;28;20033;-78
2022/10/22 00:52:09;;;;;;;3.13;1.30;;;16.50;90.30;;;;;;5012240;28;20060;-77
2022/10/22 00:54:34;;;;;;;3.45;1.42;;;16.50;90.30;;;;;;5029966;28;20082;-78
2022/10/22 00:57:00;;;;;;;2.47;1.30;;;16.50;90.30;;;;;;5016192;28;20040;-77
2022/10/22 00:59:27;;;;;;;3.33;1.30;;;16.50;90.30;;;;;;5014622;28;20209;-76
2022/10/22 01:01:53;;;;;;;2.85;1.50;;;16.50;90.30;;;;;;5012649;28;20483;-77
2022/10/22 01:04:19;;;;;;;2.05;1.10;;;16.50;90.40;;;;;;5008767;28;20030;-76
2022/10/22 01:06:46;;;;;;;3.13;1.33;;;16.50;90.40;;;;;;5029214;28;20026;-76
2022/10/22 01:09:32;;;;;;;3.47;1.23;;;16.50;90.40;;;;;;5012252;28;20030;-76
2022/10/22 01:12:19;;;;;;;1.70;1.10;;;16.50;90.40;;;;;;5029663;28;20037;-78
2022/10/22 01:15:00;;;;;;;3.00;1.40;;;16.50;90.40;;;;;;5030710;28;20265;-76
2022/10/22 01:17:37;;;;;;;2.65;1.35;;;16.50;90.40;;;;;;5030343;28;20773;-77
2022/10/22 01:20:29;;;;;;;2.42;1.20;;;16.50;90.40;;;;;;5022907;28;20052;-77
2022/10/22 01:23:46;;;;;;;2.78;1.20;;;16.50;90.50;;;;;;5029296;28;20021;-77
2022/10/22 01:26:34;;;;;;;2.58;1.30;;;16.50;90.40;;;;;;5000314;28;20556;-77
2022/10/22 01:29:15;;;;;;;3.13;1.42;;;16.50;90.30;;;;;;5028464;28;20045;-77
2022/10/22 01:32:01;;;;;;;;;;;16.50;90.20;;;;;;5009657;28;20022;-77
2022/10/22 01:34:29;;;;;;;1.60;1.23;;;16.40;90.20;;;;;;5012999;28;19916;-77
2022/10/22 01:36:56;;;;;;;1.88;1.20;;;16.50;90.20;;;;;;5030569;28;20067;-77
2022/10/22 01:39:24;;;;;;;2.53;1.30;;;16.50;90.10;;;;;;5028584;28;20039;-79
2022/10/22 01:41:52;;;;;;;2.58;1.30;;;16.50;90.10;;;;;;5010669;28;20072;-78
2022/10/22 01:44:33;;;;;;;2.38;1.45;;;16.50;90.20;;;;;;5012647;28;20052;-77
2022/10/22 01:47:08;;;;;;;2.30;1.25;;;16.50;90.20;;;;;;5026836;28;20522;-78
2022/10/22 01:50:10;;;;;;;2.47;1.25;;;16.50;90.20;;;;;;5011793;28;20495;-76
2022/10/22 01:53:04;;;;;;;3.08;1.50;;;16.50;90.20;;;;;;5008940;28;20044;-78
2022/10/22 01:55:35;;;;;;;2.13;1.13;;;16.50;90.20;;;;;;5011713;28;20120;-76
2022/10/22 01:58:12;;;;;;;2.57;1.30;;;16.50;90.30;;;;;;5029580;28;20022;-78
2022/10/22 02:00:43;;;;;;;2.17;1.20;;;16.50;90.30;;;;;;5009779;28;20782;-78
2022/10/22 02:03:20;;;;;;;2.00;1.13;;;16.50;90.30;;;;;;5029575;28;20021;-77
2022/10/22 02:05:57;;;;;;;1.90;1.20;;;16.50;90.30;;;;;;5028205;28;20029;-76
2022/10/22 02:08:29;;;;;;;2.83;1.30;;;16.40;90.30;;;;;;5030217;28;20029;-77
2022/10/22 02:10:57;;;;;;;2.85;1.50;;;16.40;90.40;;;;;;5029531;28;20041;-75
2022/10/22 02:13:32;;;;;;;2.15;1.05;;;16.50;90.40;;;;;;5028506;28;20503;-77
2022/10/22 02:16:00;;;;;;;3.08;1.20;;;16.40;90.40;;;;;;5005876;28;20056;-76
2022/10/22 02:18:29;;;;;;;3.05;1.20;;;16.40;90.30;;;;;;5028805;28;20025;-77
2022/10/22 02:20:56;;;;;;;3.42;1.42;;;16.40;90.40;;;;;;5003662;28;20026;-78
2022/10/22 02:23:22;;;;;;;2.20;1.20;;;16.40;90.40;;;;;;5011846;28;20033;-77
2022/10/22 02:25:54;;;;;;;2.45;1.33;;;16.40;90.40;;;;;;5011868;28;20040;-78
2022/10/22 02:28:31;;;;;;;1.80;1.08;;;16.40;90.30;;;;;;5011513;28;20092;-77
2022/10/22 02:31:02;;;;;;;2.95;1.20;;;16.40;90.30;;;;;;5010952;28;20036;-77
2022/10/22 02:33:32;;;;;;;2.17;1.00;;;16.40;90.20;;;;;;5028458;28;20037;-76
2022/10/22 02:35:59;;;;;;;1.90;1.00;;;16.50;90.20;;;;;;5011513;28;20029;-78
2022/10/22 02:38:27;;;;;;;1.42;1.00;;;16.50;90.10;;;;;;5029160;28;20071;-77
2022/10/22 02:40:52;;;;;;;2.33;1.10;;;16.50;90.10;;;;;;5029243;28;20136;-77
2022/10/22 02:43:18;;;;;;;1.30;0.98;;;16.50;90.10;;;;;;5011921;28;20104;-77
2022/10/22 02:45:45;;;;;;;2.63;1.23;;;16.50;90.10;;;;;;5011352;28;20033;-76
2022/10/22 02:48:11;;;;;;;2.35;1.20;;;16.50;90.10;;;;;;5012087;28;20033;-78
2022/10/22 02:50:36;;;;;;;2.40;1.23;;;16.50;90.10;;;;;;5009388;28;20026;-77
2022/10/22 02:53:02;;;;;;;1.92;1.02;;;16.50;90.10;;;;;;5027627;28;20068;-78
2022/10/22 02:55:28;;;;;;;2.03;1.20;;;16.50;90.20;;;;;;5028423;28;20079;-78
2022/10/22 02:57:53;;;;;;;2.80;1.27;;;16.50;90.20;;;;;;5028110;28;20076;-76
2022/10/22 03:00:20;;;;;;;2.50;1.13;;;16.40;90.20;;;;;;5028580;28;20109;-78
2022/10/22 03:02:46;;;;;;;3.08;1.42;;;16.40;90.20;;;;;;5011837;28;20104;-77
2022/10/22 03:05:12;;;;;;;2.25;0.90;;;16.50;90.30;;;;;;5027855;28;20113;-78
2022/10/22 03:07:37;;;;;;;2.10;1.13;;;16.50;90.30;;;;;;5027941;28;20057;-76
2022/10/22 03:10:04;;;;;;;2.42;1.30;;;16.40;90.30;;;;;;5027159;28;20525;-77
2022/10/22 03:12:29;;;;;;;2.17;1.15;;;16.40;90.30;;;;;;5006508;28;20061;-77
2022/10/22 03:14:55;;;;;;;2.55;1.35;;;16.50;90.40;;;;;;5009814;28;20052;-77
2022/10/22 03:17:20;;;;;;;2.03;1.13;;;16.40;90.30;;;;;;5010070;28;20040;-75
2022/10/22 03:19:46;;;;;;;1.52;1.00;;;16.40;90.30;;;;;;5027875;28;20025;-77
2022/10/22 03:22:17;;;;;;;1.88;1.30;;;16.40;90.30;;;;;;4995581;28;20072;-77
2022/10/22 03:24:46;;;;;;;2.28;1.10;;;16.40;90.30;;;;;;5028308;28;20038;-76
2022/10/22 03:27:15;;;;;;;1.85;1.20;;;16.40;90.30;;;;;;5029794;28;20628;-76
2022/10/22 03:29:42;;;;;;;2.08;1.10;;;16.40;90.40;;;;;;5032210;28;20033;-78
2022/10/22 03:32:07;;;;;;;2.25;1.00;;;16.40;90.30;;;;;;5032166;28;20037;-77
2022/10/22 03:34:33;;;;;;;3.15;1.50;;;16.40;90.30;;;;;;5012680;28;20038;-79
2022/10/22 03:37:00;;;;;;;1.65;1.10;;;16.40;90.20;;;;;;5016171;28;20116;-78
2022/10/22 03:39:28;;;;;;;2.35;1.10;;;16.50;90.20;;;;;;5014868;28;20033;-78
2022/10/22 03:41:54;;;;;;;2.00;1.10;;;16.50;90.10;;;;;;5014249;28;20029;-78
2022/10/22 03:44:21;;;;;;;2.47;1.25;;;16.50;90.10;;;;;;5014376;28;20559;-78
2022/10/22 03:46:47;;;;;;;2.22;1.13;;;16.50;90.10;;;;;;5016943;28;20033;-80
2022/10/22 03:49:13;;;;;;;2.17;1.20;;;16.50;90.10;;;;;;5013557;28;20029;-78
2022/10/22 03:51:38;;;;;;;2.60;1.20;;;16.50;90.10;;;;;;5026147;28;20034;-78
2022/10/22 03:54:04;;;;;;;2.20;1.20;;;16.50;90.10;;;;;;5015957;28;20025;-79
2022/10/22 03:56:30;;;;;;;1.73;1.08;;;16.50;90.20;;;;;;5012997;28;20709;-79
2022/10/22 03:58:57;;;;;;;3.40;1.00;;;16.40;90.20;;;;;;5015961;28;20026;-79
2022/10/22 04:01:23;;;;;;;1.95;1.08;;;16.40;90.20;;;;;;5033547;28;20021;-78
2022/10/22 04:03:49;;;;;;;1.90;1.10;;;16.40;90.20;;;;;;5015283;28;20506;-77
2022/10/22 04:06:15;;;;;;;2.63;1.40;;;16.40;90.30;;;;;;5015807;28;20079;-78
2022/10/22 04:08:42;;;;;;;1.33;1.00;;;16.40;90.30;;;;;;5013919;28;20033;-78
2022/10/22 04:11:08;;;;;;;2.40;1.30;;;16.50;90.30;;;;;;5017647;28;20037;-78
2022/10/22 04:13:34;;;;;;;1.63;1.02;;;16.40;90.30;;;;;;5032662;28;20033;-78
2022/10/22 04:16:14;;;;;;;2.28;1.17;;;16.40;90.30;;;;;;5031119;28;20076;-79
2022/10/22 04:18:41;;;;;;;2.45;1.10;;;16.40;90.30;;;;;;5019466;28;20100;-78
2022/10/22 04:21:09;;;;;;;2.00;1.10;;;16.40;90.30;;;;;;5031856;28;20022;-78
2022/10/22 04:23:34;;;;;;;1.67;1.15;;;16.40;90.40;;;;;;5033204;28;20118;-77
2022/10/22 04:26:02;;;;;;;1.77;1.08;;;16.40;90.40;;;;;;5031847;28;20627;-75
2022/10/22 04:28:28;;;;;;;2.30;1.25;;;16.40;90.40;;;;;;5030585;28;20034;-78
2022/10/22 04:30:54;;;;;;;1.80;1.05;;;16.40;90.40;;;;;;5031212;28;20029;-77
2022/10/22 04:33:20;;;;;;;1.60;1.10;;;16.40;90.40;;;;;;5031295;28;20506;-78
2022/10/22 04:35:45;;;;;;;1.85;1.20;;;16.40;90.30;;;;;;5031207;28;20029;-80
2022/10/22 04:38:11;;;;;;;2.08;1.10;;;16.40;90.30;;;;;;5020743;28;20052;-78
2022/10/22 04:40:37;;;;;;;2.08;1.00;;;16.40;90.20;;;;;;5014734;28;20025;-80
2022/10/22 04:43:02;;;;;;;2.20;1.20;;;16.40;90.20;;;;;;5031809;28;20088;-80
2022/10/22 04:45:28;;;;;;;1.83;1.08;;;16.40;90.10;;;;;;5034591;28;20053;-78
2022/10/22 04:47:53;;;;;;;2.33;1.20;;;16.40;90.10;;;;;;5015505;28;20076;-79
2022/10/22 04:50:19;;;;;;;1.27;1.00;;;16.50;90.10;;;;;;5031719;28;20051;-78
2022/10/22 04:52:45;;;;;;;1.98;0.98;;;16.50;90.10;;;;;;5013073;28;20057;-78
2022/10/22 04:55:10;;;;;;;1.95;1.10;;;16.40;90.10;;;;;;5030997;28;20042;-79
2022/10/22 04:57:36;;;;;;;2.65;1.23;;;16.40;90.10;;;;;;5031478;28;20025;-78
2022/10/22 05:00:01;;;;;;;2.45;1.10;;;16.40;90.10;;;;;;5013704;28;20084;-80
2022/10/22 05:02:27;;;;;;;2.17;1.10;;;16.40;90.20;;;;;;5028931;28;20064;-79
2022/10/22 05:04:52;;;;;;;2.00;1.10;;;16.40;90.20;;;;;;5011063;28;20761;-79
2022/10/22 05:07:18;;;;;;;1.75;1.13;;;16.40;90.20;;;;;;5017713;28;20095;-79
2022/10/22 05:09:43;;;;;;;2.03;1.00;;;16.40;90.20;;;;;;5027987;28;20102;-78
2022/10/22 05:12:09;;;;;;;1.67;1.05;;;16.40;90.20;;;;;;5004503;28;20029;-80
2022/10/22 05:14:34;;;;;;;1.85;1.20;;;16.40;90.30;;;;;;5029060;28;20102;-80
2022/10/22 05:17:00;;;;;;;1.98;1.02;;;16.40;90.30;;;;;;5007709;28;20538;-78
2022/10/22 05:19:28;;;;;;;2.60;1.40;;;16.40;90.30;;;;;;5028249;28;20034;-79
2022/10/22 05:21:56;;;;;;;1.80;1.20;;;16.40;90.30;;;;;;5010185;28;20037;-79
2022/10/22 05:24:22;;;;;;;2.25;1.20;;;16.40;90.30;;;;;;5009270;28;20047;-79
2022/10/22 05:26:49;;;;;;;1.48;1.00;;;16.40;90.30;;;;;;5028526;28;20108;-78
2022/10/22 05:29:15;;;;;;;3.13;1.10;;;16.40;90.30;;;;;;5030167;28;20530;-78
2022/10/22 05:31:40;;;;;;;1.88;1.00;;;16.40;90.30;;;;;;5029214;28;20042;-79
2022/10/22 05:34:06;;;;;;;2.25;1.20;;;16.30;90.30;;;;;;5029190;28;20029;-80
2022/10/22 05:36:31;;;;;;;1.70;0.98;;;16.40;90.30;;;;;;5010601;28;20026;-80
2022/10/22 05:38:58;;;;;;;1.58;1.00;;;16.30;90.30;;;;;;5030126;28;20083;-79
2022/10/22 05:41:27;;;;;;;2.20;1.02;;;16.30;90.30;;;;;;5029924;28;20079;-79
2022/10/22 05:43:58;;;;;;;1.88;1.00;;;16.40;90.20;;;;;;5012688;28;20025;-79
2022/10/22 05:46:26;;;;;;;1.88;1.00;;;16.40;90.20;;;;;;5008375;28;20036;-78
2022/10/22 05:48:56;;;;;;;1.55;0.90;;;16.40;90.10;;;;;;5003899;28;20041;-77
2022/10/22 05:51:24;;;;;;;1.35;1.00;;;16.40;90.00;;;;;;5024795;28;20036;-78
2022/10/22 05:53:57;;;;;;;11.45;1.50;;;16.40;90.30;;;;;;5026081;28;20030;-77
2022/10/22 05:56:24;;;;;;;1.83;1.08;;;16.50;90.10;;;;;;5024623;28;20518;-79
2022/10/22 05:58:50;;;;;;;2.47;1.10;;;16.40;90.00;;;;;;5024268;28;20032;-77
2022/10/22 06:01:24;;;;;;;2.08;1.10;;;16.40;90.10;;;;;;5023337;28;20029;-77
2022/10/22 06:03:53;;;;;;;2.60;1.10;;;16.40;90.10;;;;;;5002963;28;20049;-77
2022/10/22 06:06:27;;;;;;;2.70;1.00;;;16.40;90.10;;;;;;5002808;28;20026;-78
2022/10/22 06:08:54;;;;;;;2.28;1.20;;;16.40;90.10;;;;;;5024997;28;20040;-78
2022/10/22 06:11:21;;;;;;;1.85;0.98;;;16.40;90.20;;;;;;5028186;28;20112;-78
2022/10/22 06:13:48;;;;;;;1.35;1.00;;;16.30;90.20;;;;;;5022141;28;20033;-78
2022/10/22 06:16:14;;;;;;;1.70;1.00;;;16.40;90.20;;;;;;5026938;28;20061;-79
2022/10/22 06:18:40;;;;;;;2.13;1.10;;;16.30;90.20;;;;;;5005176;28;20061;-78
2022/10/22 06:21:08;;;;;;;3.70;1.45;;;16.40;90.30;;;;;;5002726;28;20025;-76
2022/10/22 06:23:34;;;;;;;1.73;1.10;;;16.30;90.30;;;;;;5000582;28;20041;-78
2022/10/22 06:26:01;;;;;;;1.83;1.02;;;16.40;90.30;;;;;;5000408;28;20057;-78
2022/10/22 06:28:27;;;;;;;2.38;1.10;;;16.40;90.30;;;;;;5021142;28;20408;-76
2022/10/22 06:30:53;;;;;;;3.15;1.42;;;16.40;90.30;;;;;;5002436;28;20108;-78
2022/10/22 06:33:18;;;;;;;1.60;1.05;;;16.40;90.30;;;;;;5005769;28;20254;-77
2022/10/22 06:35:44;;;;;;;2.25;1.20;;;16.30;90.30;;;;;;5019620;28;20040;-78
2022/10/22 06:38:10;;;;;;;1.45;1.00;;;16.30;90.30;;;;;;5002245;28;20033;-78
2022/10/22 06:40:36;;;;;;;1.65;1.20;;;16.30;90.20;;;;;;5000899;28;20018;-76
2022/10/22 06:43:02;;;;;;;1.73;0.98;;;16.30;90.20;;;;;;4998081;28;20026;-76
2022/10/22 06:45:27;;;;;;;1.83;1.20;;;16.40;90.20;;;;;;4999463;28;20025;-77
2022/10/22 06:47:54;;;;;;;2.28;1.10;;;16.40;90.20;;;;;;5017538;28;20487;-76
2022/10/22 06:50:20;;;;;;;1.58;1.02;;;16.50;90.10;;;;;;4998241;28;20034;-76
2022/10/22 06:52:45;;;;;;;2.00;1.00;;;16.50;90.10;;;;;;5019161;28;20086;-77
2022/10/22 06:55:11;;;;;;;2.20;1.40;;;16.40;90.00;;;;;;5021935;28;20084;-75
2022/10/22 06:57:36;;;;;;;1.92;1.20;;;16.50;90.00;;;;;;5023499;28;20034;-76
2022/10/22 07:00:07;;;;;;;1.25;1.10;;;16.50;89.80;;;;;;5023022;28;20025;-78
2022/10/22 07:02:32;;;;;;;1.63;1.05;;;16.50;89.60;;;;;;5007917;28;20044;-78
2022/10/22 07:04:58;;;;;;;1.27;0.93;;;16.50;89.60;;;;;;5032751;28;20515;-75
2022/10/22 07:07:23;;;;;;;1.63;1.00;;;16.50;89.60;;;;;;5033800;28;20044;-77
2022/10/22 07:09:49;;;;;;;1.75;1.02;;;16.50;89.60;;;;;;5036450;28;20037;-77
2022/10/22 07:12:16;;;;;;;1.73;1.05;;;16.60;89.50;;;;;;5012976;28;20056;-77
2022/10/22 07:14:41;;;;;;;2.05;1.10;;;16.60;89.40;;;;;;5010256;28;20038;-79
2022/10/22 07:17:07;;;;;;;1.50;0.90;;;16.70;89.20;;;;;;5026607;28;20486;-76
2022/10/22 07:19:33;;;;;;;1.08;0.90;;;16.70;89.00;;;;;;5012314;28;20045;-76
2022/10/22 07:21:58;;;;;;;2.67;1.10;;;16.60;88.80;;;;;;5029677;28;20144;-77
2022/10/22 07:24:24;;;;;;;1.73;1.00;;;16.70;88.90;;;;;;5030657;28;20559;-76
2022/10/22 07:26:49;;;;;;;1.33;1.05;;;16.70;88.80;;;;;;5032117;28;20918;-78
2022/10/22 07:29:15;;;;;;;1.30;0.90;;;16.80;88.60;;;;;;5017035;28;20116;-76
2022/10/22 07:31:41;;;;;;;2.67;1.15;;;16.80;88.40;;;;;;5012918;28;20033;-77
2022/10/22 07:34:07;;;;;;;1.33;0.93;;;16.90;88.20;;;;;;5012380;28;20410;-77
2022/10/22 07:36:32;;;;;;;1.90;1.02;;;16.90;88.10;;;;;;5013318;28;20104;-78
2022/10/22 07:38:58;;;;;;;1.20;1.00;;;16.90;88.10;;;;;;5013371;28;20021;-76
2022/10/22 07:41:25;;;;;;;1.95;1.17;;;16.90;88.10;;;;;;5012897;28;20034;-77
2022/10/22 07:43:51;;;;;;;2.25;1.00;;;16.90;88.10;;;;;;5028993;28;20034;-77
2022/10/22 07:46:16;;;;;;;2.65;1.30;;;16.90;88.00;;;;;;5013624;28;20029;-77
2022/10/22 07:48:42;;;;;;;2.28;1.30;;;17.00;87.90;;;;;;5018127;28;20029;-79
2022/10/22 07:51:08;;;;;;;1.42;0.90;;;17.00;87.60;;;;;;5017044;28;20043;-78
2022/10/22 07:53:33;;;;;;;2.50;1.17;;;17.10;87.30;;;;;;5017274;28;20116;-80
2022/10/22 07:55:59;;;;;;;1.95;1.20;;;17.30;87.10;;;;;;5017693;28;20036;-78
2022/10/22 07:58:24;;;;;;;2.10;1.00;;;17.30;86.80;;;;;;5011688;28;20029;-77
2022/10/22 08:00:53;;;;;;;2.05;1.10;;;17.30;86.50;;;;;;5014202;28;20593;-78
2022/10/22 08:03:19;;;;;;;8.02;1.50;;;17.40;86.60;;;;;;5011879;28;20083;-76
2022/10/22 08:05:44;;;;;;;8.82;1.70;;;17.40;86.00;;;;;;5032473;28;20104;-76
2022/10/22 08:08:11;;;;;;;5.57;1.60;;;17.40;85.70;;;;;;5032378;28;20040;-77
2022/10/22 08:10:37;;;;;;;6.78;1.90;;;17.50;85.80;;;;;;5029151;28;20033;-77
2022/10/22 08:13:04;;;;;;;5.10;1.60;;;17.50;85.80;;;;;;5028910;28;20112;-79
2022/10/22 08:15:30;;;;;;;7.47;1.55;;;17.50;85.90;;;;;;5013128;28;20055;-77
2022/10/22 08:17:56;;;;;;;3.60;1.30;;;17.50;86.10;;;;;;5011762;28;20025;-76
2022/10/22 08:20:21;;;;;;;3.75;1.42;;;17.50;85.80;;;;;;5029794;28;20117;-78
2022/10/22 08:22:47;;;;;;;4.70;1.40;;;17.50;85.80;;;;;;5021951;28;20037;-77
2022/10/22 08:25:12;;;;;;;6.63;1.55;;;17.50;85.80;;;;;;5008420;28;20053;-76
2022/10/22 08:27:38;;;;;;;4.35;1.50;;;17.50;85.80;;;;;;5010429;28;20495;-77
2022/10/22 08:30:05;;;;;;;2.90;1.42;;;17.60;85.80;;;;;;5011916;28;20125;-78
2022/10/22 08:32:31;;;;;;;4.82;1.50;;;17.60;85.70;;;;;;5009412;28;20039;-76
2022/10/22 08:34:56;;;;;;;4.13;1.65;;;17.60;85.60;;;;;;5012019;28;20120;-77
2022/10/22 08:37:22;;;;;;;4.68;1.70;;;17.60;85.60;;;;;;5020378;28;20029;-76
2022/10/22 08:39:47;;;;;;;3.17;1.33;;;17.70;85.40;;;;;;5028693;28;20140;-76
2022/10/22 08:42:36;;;;;;;3.53;1.42;;;17.70;85.70;;;;;;5026453;28;20105;-76
2022/10/22 08:45:21;;;;;;;3.53;1.35;;;17.70;85.10;;;;;;5023353;28;20041;-75
2022/10/22 08:47:54;;;;;;;4.32;1.60;;;17.70;85.10;;;;;;5026412;28;20025;-77
2022/10/22 08:50:28;;;;;;;3.42;1.50;;;17.80;85.00;;;;;;5029466;28;20067;-77
2022/10/22 08:52:57;;;;;;;2.13;1.30;;;17.80;84.90;;;;;;5023536;28;20025;-76
2022/10/22 08:55:24;;;;;;;2.78;1.55;;;17.80;84.90;;;;;;5029777;28;20403;-78
2022/10/22 08:58:30;;;;;;;5.45;1.55;;;17.90;84.60;;;;;;5029426;28;20091;-76
2022/10/22 09:01:08;;;;;;;3.80;1.60;;;17.90;84.40;;;;;;4969947;28;20038;-76
2022/10/22 09:03:42;;;;;;;5.57;1.40;;;18.00;84.40;;;;;;5028199;28;20018;-76
2022/10/22 09:06:10;;;;;;;6.38;1.42;;;18.00;84.30;;;;;;5011981;28;20053;-76
2022/10/22 09:08:37;;;;;;;5.45;1.60;;;18.00;84.30;;;;;;5028515;28;20103;-77
2022/10/22 09:11:37;;;;;;;5.05;1.35;;;18.00;84.50;;;;;;4998429;28;20204;-76
2022/10/22 09:14:03;;;;;;;;;;;17.90;84.70;;;;;;5018179;28;20116;-76
2022/10/22 09:16:59;;;;;;;6.43;1.50;;;17.80;85.10;;;;;;5004625;28;19978;-76
2022/10/22 09:20:02;;;;;;;6.38;1.60;;;17.80;85.20;;;;;;5020784;28;20026;-78
2022/10/22 09:23:22;;;;;;;5.15;1.60;;;17.70;85.40;;;;;;5028658;28;20013;-78
2022/10/22 09:25:50;;;;;;;3.35;1.42;;;17.80;85.40;;;;;;4950609;28;20485;-76
2022/10/22 09:28:16;;;;;;;5.00;1.50;;;17.80;85.20;;;;;;4985508;28;20045;-77
2022/10/22 09:30:42;;;;;;;5.15;1.90;;;17.90;85.00;;;;;;5014463;28;20042;-74
2022/10/22 09:33:10;;;;;;;4.28;1.42;;;17.90;84.90;;;;;;4997210;28;20049;-76
2022/10/22 09:36:02;;;;;;;4.55;1.70;;;18.00;84.80;;;;;;5015855;28;21033;-75
2022/10/22 09:38:52;;;;;;;4.82;1.80;;;18.00;84.70;;;;;;5008043;28;20018;-75
2022/10/22 09:41:21;;;;;;;4.18;1.52;;;18.00;84.70;;;;;;4990761;28;20029;-75
2022/10/22 09:43:48;;;;;;;4.22;1.50;;;18.00;84.60;;;;;;5006774;28;20025;-75
2022/10/22 09:46:19;;;;;;;2.95;1.50;;;18.00;84.60;;;;;;5017988;28;20025;-75
2022/10/22 09:49:01;;;;;;;4.20;1.50;;;18.00;84.60;;;;;;5026298;28;20021;-75
2022/10/22 09:51:46;;;;;;;4.30;1.50;;;18.00;84.60;;;;;;5009312;28;20029;-75
2022/10/22 09:54:16;;;;;;;3.30;1.30;;;18.00;84.70;;;;;;4997558;28;20135;-76
2022/10/22 09:56:49;;;;;;;3.80;1.25;;;18.00;84.70;;;;;;5003757;28;20157;-75
2022/10/22 09:59:16;;;;;;;3.78;1.20;;;18.00;84.70;;;;;;5006476;28;20030;-75
2022/10/22 10:01:43;;;;;;;2.97;1.30;;;18.10;84.60;;;;;;5011077;28;20022;-75
2022/10/22 10:04:16;;;;;;;2.53;1.45;;;18.10;84.50;;;;;;5014914;28;20475;-76
2022/10/22 10:06:43;;;;;;;2.67;1.27;;;18.00;84.50;;;;;;4990643;28;20045;-75
2022/10/22 10:09:15;;;;;;;4.47;1.40;;;18.00;84.60;;;;;;5015159;28;20029;-75
2022/10/22 10:11:47;;;;;;;3.03;1.50;;;18.00;84.80;;;;;;5027139;28;20514;-76
2022/10/22 10:14:19;;;;;;;3.42;1.33;;;17.90;85.20;;;;;;5026645;28;20029;-76
2022/10/22 10:16:58;;;;;;;2.10;1.30;;;17.80;85.50;;;;;;5009130;28;20064;-75
2022/10/22 10:19:49;;;;;;;4.55;1.60;;;17.80;85.80;;;;;;5023182;28;20039;-75
2022/10/22 10:22:21;;;;;;;2.15;1.40;;;17.70;86.10;;;;;;5026634;28;20025;-75
2022/10/22 10:24:57;;;;;;;;;;;17.60;86.30;;;;;;5026985;28;20191;-76
2022/10/22 10:27:52;;;;;;;4.00;1.67;;;17.60;86.50;;;;;;5008672;28;19913;-76
2022/10/22 10:30:20;;;;;;;5.25;1.60;;;17.60;86.60;;;;;;5026908;28;20025;-76
2022/10/22 10:33:15;;;;;;;3.03;1.50;;;17.60;86.60;;;;;;5019139;28;20072;-76
2022/10/22 10:36:05;;;;;;;3.88;1.55;;;17.60;86.70;;;;;;5008955;28;20045;-77
2022/10/22 10:39:01;;;;;;;2.70;1.10;;;17.50;86.80;;;;;;5017687;28;20503;-82
2022/10/22 10:41:36;;;;;;;2.08;1.25;;;17.50;87.00;;;;;;5005565;28;20585;-75
2022/10/22 10:44:19;;;;;;;4.47;1.42;;;17.50;87.20;;;;;;5022644;28;20118;-75
2022/10/22 10:47:03;;;;;;;8.88;2.17;;;17.50;87.20;;;;;;4995668;28;20039;-76
2022/10/22 10:49:32;;;;;;;7.97;2.03;;;17.50;87.80;;;;;;5021911;28;20087;-74
2022/10/22 10:52:32;;;;;;;10.30;2.40;;;17.50;87.40;;;;;;5024057;28;20124;-75
2022/10/22 10:55:17;;;;;;;10.10;2.03;;;17.40;87.60;;;;;;5004775;28;20025;-75
2022/10/22 10:57:54;;;;;;;7.78;1.92;;;17.50;87.50;;;;;;5006560;28;20045;-75
2022/10/22 11:00:21;;;;;;;9.27;2.00;;;17.40;87.40;;;;;;5024440;28;20064;-75
2022/10/22 11:03:03;;;;;;;6.60;1.48;;;17.50;87.30;;;;;;4999486;28;20030;-75
2022/10/22 11:05:52;;;;;;;7.57;1.58;;;17.50;87.40;;;;;;5006344;28;20088;-74
2022/10/22 11:08:34;;;;;;;5.68;1.48;;;17.60;87.70;;;;;;5023164;28;20017;-75
2022/10/22 11:11:19;;;;;;;4.40;1.50;;;17.70;87.50;;;;;;5016208;28;20518;-76
2022/10/22 11:13:52;;;;;;;5.53;1.63;;;17.70;86.90;;;;;;5024592;28;20033;-75
2022/10/22 11:16:34;;;;;;;5.85;1.60;;;17.70;87.10;;;;;;5024833;28;20083;-74
2022/10/22 11:19:26;;;;;;;6.43;1.58;;;17.70;87.20;;;;;;5000888;28;20091;-76
2022/10/22 11:22:04;;;;;;;9.02;1.75;;;17.80;86.90;;;;;;5029721;28;20022;-77
2022/10/22 11:24:34;;;;;;;6.63;1.67;;;17.90;87.50;;;;;;5000430;28;20145;-77
2022/10/22 11:27:30;;;;;;;5.72;1.80;;;18.00;88.70;;;;;;4999116;28;20056;-76
2022/10/22 11:30:04;;;;;;;8.60;1.90;;;18.00;88.50;;;;;;5005759;28;20079;-75
2022/10/22 11:32:32;;;;;;;5.57;1.67;;;18.20;90.00;;;;;;5003396;28;20057;-74
2022/10/22 11:35:02;;;;;;;7.15;1.58;;;18.30;90.10;;;;;;5014921;28;20061;-74
2022/10/22 11:37:34;;;;;;;3.77;1.50;;;18.40;89.40;;;;;;5003387;28;20026;-74
2022/10/22 11:40:05;;;;;;;;;;;18.50;90.00;;;;;;5020847;28;20310;-76
2022/10/22 11:42:38;;;;;;;8.25;1.70;;;18.60;89.50;;;;;;5013093;28;19913;-74
2022/10/22 11:45:22;;;;;;;7.75;1.65;;;18.70;89.20;;;;;;5015387;28;20049;-74
2022/10/22 11:48:10;;;;;;;7.57;1.90;;;18.80;89.10;;;;;;5023467;28;20037;-74
2022/10/22 11:50:56;;;;;;;6.25;1.70;;;18.80;88.50;;;;;;4999950;28;20053;-74
2022/10/22 11:53:24;;;;;;;5.72;2.00;;;18.90;88.90;;;;;;5024421;28;20057;-74
2022/10/22 11:55:58;;;;;;;4.55;1.70;;;18.90;89.10;;;;;;5003365;28;20373;-74
2022/10/22 11:58:27;;;;;;;5.15;1.77;;;18.90;88.70;;;;;;5004605;28;20021;-74
2022/10/22 12:01:01;;;;;;;4.65;1.50;;;18.90;88.20;;;;;;5019396;28;20029;-75
2022/10/22 12:03:27;;;;;;;7.70;1.67;;;19.00;88.20;;;;;;5021902;28;20095;-74
2022/10/22 12:06:11;;;;;;;6.57;1.85;;;19.00;88.00;;;;;;5003484;28;20033;-76
2022/10/22 12:08:49;;;;;;;5.95;1.50;;;19.00;87.70;;;;;;4997645;28;20029;-73
2022/10/22 12:11:46;;;;;;;7.88;1.83;;;19.10;87.60;;;;;;5017307;28;20813;-73
2022/10/22 12:14:28;;;;;;;5.93;1.70;;;19.10;87.00;;;;;;5000596;28;20033;-73
2022/10/22 12:17:00;;;;;;;7.53;1.77;;;18.90;87.60;;;;;;5025065;28;20507;-74
2022/10/22 12:19:36;;;;;;;7.93;1.70;;;18.80;88.00;;;;;;5005717;28;20543;-74
2022/10/22 12:22:23;;;;;;;4.72;1.67;;;18.60;88.40;;;;;;5024895;28;20026;-74
2022/10/22 12:24:51;;;;;;;6.65;1.50;;;18.50;88.70;;;;;;5028701;28;20116;-74
2022/10/22 12:27:19;;;;;;;6.35;1.80;;;18.40;89.00;;;;;;5011103;28;20733;-74
2022/10/22 12:29:45;;;;;;;6.00;1.60;;;18.40;89.40;;;;;;5002512;28;20038;-75
2022/10/22 12:32:13;;;;;;;6.38;1.95;;;18.40;89.50;;;;;;5012589;28;20021;-74
2022/10/22 12:34:50;;;;;;;5.32;1.77;;;18.30;89.70;;;;;;5030128;28;20033;-73
2022/10/22 12:37:17;;;;;;;4.97;1.90;;;18.30;90.10;;;;;;5029685;28;20025;-73
2022/10/22 12:39:43;;;;;;;6.65;1.70;;;18.30;89.70;;;;;;5028615;28;20026;-75
2022/10/22 12:42:16;;;;;;;6.78;1.88;;;18.20;89.60;;;;;;5011032;28;20037;-73
2022/10/22 12:44:43;;;;;;;7.25;1.65;;;18.20;89.60;;;;;;5008592;28;20033;-74
2022/10/22 12:47:17;;;;;;;8.20;1.80;;;18.20;89.60;;;;;;4999630;28;20064;-74
2022/10/22 12:49:49;;;;;;;8.93;1.60;;;18.20;89.50;;;;;;5007617;28;20026;-73
2022/10/22 12:52:21;;;;;;;7.97;1.70;;;18.20;89.60;;;;;;5009990;28;20112;-73
2022/10/22 12:54:51;;;;;;;6.75;1.60;;;18.10;89.70;;;;;;5000019;28;20069;-74
2022/10/22 12:57:19;;;;;;;6.25;1.80;;;18.10;90.00;;;;;;5009810;28;20439;-74
2022/10/22 12:59:49;;;;;;;5.57;1.80;;;18.10;89.70;;;;;;5013042;28;20113;-74
2022/10/22 13:02:24;;;;;;;5.93;1.52;;;18.10;89.70;;;;;;5020306;28;20025;-73
2022/10/22 13:05:19;;;;;;;8.85;1.70;;;18.10;89.70;;;;;;5011969;28;20117;-74
2022/10/22 13:07:51;;;;;;;4.28;1.45;;;18.10;89.60;;;;;;5029462;28;20026;-73